Time;durP1;ratioP1;P1;durP2;ratioP2;P2;SDS_P1;SDS_P2;PMS_P1;PMS_P2;Temp;Humidity;BMP_temperature;BMP_pressure;BME280_temperature;BME280_humidity;BME280_pressure;Samples;Min_cycle;Max_cycle;Signal;HPM_P1;HPM_P2
2022/05/22 00:01:36;;;;;;;4.03;3.63;;;;;;;;;;5033670;28;20451;-78
2022/05/22 00:04:04;;;;;;;4.37;3.97;;;;;;;;;;5032643;28;20458;-78
2022/05/22 00:06:31;;;;;;;4.80;4.17;;;;;;;;;;5032327;28;20488;-79
2022/05/22 00:08:59;;;;;;;5.50;4.47;;;;;;;;;;5052761;28;20523;-79
2022/05/22 00:11:26;;;;;;;4.80;4.30;;;;;;;;;;5053900;28;20495;-78
2022/05/22 00:13:53;;;;;;;4.20;3.90;;;;;;;;;;5052216;28;20757;-79
2022/05/22 00:16:40;;;;;;;3.50;3.30;;;;;;;;;;5052429;28;20481;-78
2022/05/22 00:19:08;;;;;;;4.70;4.30;;;;;;;;;;5052700;28;20477;-78
2022/05/22 00:21:35;;;;;;;5.57;3.83;;;;;;;;;;5051011;28;20449;-79
2022/05/22 00:24:04;;;;;;;4.30;3.90;;;;;;;;;;5051636;28;20509;-78
2022/05/22 00:26:31;;;;;;;4.60;4.20;;;;;;;;;;5051932;28;20469;-78
2022/05/22 00:28:58;;;;;;;5.93;4.10;;;;;;;;;;5052499;28;20465;-78
2022/05/22 00:31:25;;;;;;;4.77;4.30;;;;;;;;;;5052156;28;20454;-78
2022/05/22 00:33:52;;;;;;;4.37;3.97;;;;;;;;;;5052326;28;20752;-78
2022/05/22 00:36:19;;;;;;;5.30;4.90;;;;;;;;;;5051672;28;20533;-79
2022/05/22 00:38:46;;;;;;;5.73;5.07;;;;;;;;;;5051598;28;20907;-78
2022/05/22 00:41:15;;;;;;;9.30;5.73;;;;;;;;;;5052935;28;20508;-79
2022/05/22 00:43:43;;;;;;;5.77;5.40;;;;;;;;;;5053990;28;20448;-79
2022/05/22 00:46:12;;;;;;;7.27;6.67;;;;;;;;;;5054527;28;20503;-79
2022/05/22 00:48:40;;;;;;;10.50;6.17;;;;;;;;;;5052162;28;21147;-78
2022/05/22 00:51:08;;;;;;;9.70;6.77;;;;;;;;;;5051439;28;20445;-78
2022/05/22 00:53:38;;;;;;;7.00;6.30;;;;;;;;;;5051418;28;20525;-78
2022/05/22 00:56:07;;;;;;;7.10;6.47;;;;;;;;;;5051714;28;20469;-78
2022/05/22 00:58:36;;;;;;;7.10;6.50;;;;;;;;;;5052758;28;20465;-78
2022/05/22 01:01:04;;;;;;;7.20;6.60;;;;;;;;;;5053552;28;20442;-77
2022/05/22 01:03:32;;;;;;;7.17;6.67;;;;;;;;;;5052523;28;21007;-77
2022/05/22 01:06:02;;;;;;;7.67;7.00;;;;;;;;;;5054982;28;20437;-78
2022/05/22 01:08:31;;;;;;;7.93;7.23;;;;;;;;;;5054025;28;20533;-79
2022/05/22 01:11:00;;;;;;;8.10;7.50;;;;;;;;;;5051720;28;20511;-78
2022/05/22 01:13:28;;;;;;;14.80;7.67;;;;;;;;;;5051150;28;20445;-78
2022/05/22 01:15:59;;;;;;;10.03;7.53;;;;;;;;;;5051169;28;20573;-78
2022/05/22 01:18:26;;;;;;;8.00;7.30;;;;;;;;;;5051648;28;20477;-78
2022/05/22 01:20:54;;;;;;;8.30;7.50;;;;;;;;;;5051656;28;20545;-78
2022/05/22 01:23:23;;;;;;;9.33;8.43;;;;;;;;;;5051573;28;20442;-78
2022/05/22 01:25:53;;;;;;;7.47;6.90;;;;;;;;;;5051653;28;20444;-78
2022/05/22 01:28:21;;;;;;;8.00;7.23;;;;;;;;;;5051236;28;20461;-79
2022/05/22 01:30:48;;;;;;;7.83;7.23;;;;;;;;;;5050876;28;20959;-78
2022/05/22 01:33:15;;;;;;;8.63;7.83;;;;;;;;;;5051173;28;20445;-79
2022/05/22 01:35:42;;;;;;;7.40;6.70;;;;;;;;;;5054890;28;20579;-78
2022/05/22 01:38:09;;;;;;;8.97;8.17;;;;;;;;;;5054994;28;20492;-78
2022/05/22 01:40:38;;;;;;;7.70;7.07;;;;;;;;;;5054834;28;20449;-78
2022/05/22 01:43:05;;;;;;;8.63;7.83;;;;;;;;;;5054595;28;20452;-79
2022/05/22 01:45:33;;;;;;;8.13;7.47;;;;;;;;;;5054624;28;20446;-79
2022/05/22 01:48:00;;;;;;;8.20;7.50;;;;;;;;;;5054220;28;20484;-78
2022/05/22 01:50:27;;;;;;;7.77;6.90;;;;;;;;;;5055143;28;20511;-79
2022/05/22 01:52:54;;;;;;;7.93;7.33;;;;;;;;;;5054675;28;20441;-79
2022/05/22 01:55:21;;;;;;;8.33;7.40;;;;;;;;;;5055245;28;20576;-79
2022/05/22 01:57:53;;;;;;;12.27;7.60;;;;;;;;;;5054395;28;20762;-80
2022/05/22 02:00:23;;;;;;;7.63;7.03;;;;;;;;;;5054723;28;20453;-79
2022/05/22 02:02:50;;;;;;;8.20;7.60;;;;;;;;;;5054579;28;20457;-78
2022/05/22 02:05:17;;;;;;;5.60;5.13;;;;;;;;;;5054418;28;20442;-79
2022/05/22 02:10:31;;;;;;;7.33;6.63;;;;;;;;;;5054350;28;20973;-78
2022/05/22 02:13:00;;;;;;;8.03;7.33;;;;;;;;;;5053974;28;20480;-78
2022/05/22 02:15:27;;;;;;;7.17;6.57;;;;;;;;;;5054221;28;21023;-79
2022/05/22 02:17:54;;;;;;;7.50;6.90;;;;;;;;;;5054342;28;20969;-79
2022/05/22 02:20:21;;;;;;;7.93;7.13;;;;;;;;;;5054715;28;20425;-79
2022/05/22 02:22:49;;;;;;;6.73;6.23;;;;;;;;;;5053841;28;20449;-79
2022/05/22 02:25:18;;;;;;;7.10;6.53;;;;;;;;;;5053908;28;20450;-79
2022/05/22 02:27:45;;;;;;;6.10;5.50;;;;;;;;;;5054330;28;20457;-79
2022/05/22 02:30:15;;;;;;;6.10;5.60;;;;;;;;;;5054065;28;20452;-79
2022/05/22 02:32:42;;;;;;;6.33;4.47;;;;;;;;;;5051734;28;20495;-79
2022/05/22 02:35:10;;;;;;;5.30;4.90;;;;;;;;;;5052836;28;20495;-79
2022/05/22 02:37:41;;;;;;;5.50;4.90;;;;;;;;;;5052714;28;20462;-79
2022/05/22 02:40:09;;;;;;;5.60;5.10;;;;;;;;;;5052612;28;20523;-78
2022/05/22 02:42:39;;;;;;;6.00;5.60;;;;;;;;;;5053487;28;20453;-78
2022/05/22 02:45:07;;;;;;;5.80;5.30;;;;;;;;;;5057926;28;20438;-78
2022/05/22 02:47:35;;;;;;;6.60;6.10;;;;;;;;;;5052059;28;20498;-79
2022/05/22 02:50:02;;;;;;;6.57;5.97;;;;;;;;;;5045797;28;20896;-79
2022/05/22 02:52:29;;;;;;;7.07;6.53;;;;;;;;;;5051228;28;20450;-79
2022/05/22 02:54:56;;;;;;;6.20;5.60;;;;;;;;;;5052542;28;20445;-79
2022/05/22 02:57:25;;;;;;;7.10;6.60;;;;;;;;;;5052844;28;20512;-79
2022/05/22 02:59:52;;;;;;;7.60;6.77;;;;;;;;;;5053620;28;20453;-79
2022/05/22 03:02:20;;;;;;;7.27;6.70;;;;;;;;;;5054058;28;20823;-78
2022/05/22 03:04:48;;;;;;;8.37;7.77;;;;;;;;;;5052948;28;20449;-78
2022/05/22 03:07:17;;;;;;;7.63;7.03;;;;;;;;;;5053242;28;20783;-78
2022/05/22 03:09:45;;;;;;;8.10;7.40;;;;;;;;;;5053801;28;20509;-79
2022/05/22 03:12:13;;;;;;;8.17;7.03;;;;;;;;;;5051096;28;20968;-79
2022/05/22 03:14:43;;;;;;;10.20;7.43;;;;;;;;;;5050128;28;20437;-79
2022/05/22 03:17:11;;;;;;;7.57;6.97;;;;;;;;;;5045038;28;20564;-79
2022/05/22 03:19:38;;;;;;;8.30;7.60;;;;;;;;;;5053041;28;20933;-79
2022/05/22 03:22:07;;;;;;;8.00;7.40;;;;;;;;;;5053012;28;20449;-78
2022/05/22 03:24:34;;;;;;;7.70;7.10;;;;;;;;;;5066407;28;20449;-79
2022/05/22 03:27:02;;;;;;;7.20;6.70;;;;;;;;;;5070565;28;20438;-79
2022/05/22 03:29:29;;;;;;;7.20;6.67;;;;;;;;;;5069120;28;20462;-78
2022/05/22 03:31:56;;;;;;;8.63;7.70;;;;;;;;;;5070420;28;20492;-79
2022/05/22 03:34:23;;;;;;;8.03;7.27;;;;;;;;;;5054495;28;20495;-79
2022/05/22 03:36:50;;;;;;;9.10;8.40;;;;;;;;;;5053126;28;20542;-78
2022/05/22 03:39:19;;;;;;;7.63;7.03;;;;;;;;;;5052854;28;20977;-79
2022/05/22 03:41:46;;;;;;;9.20;8.40;;;;;;;;;;5053003;28;20450;-79
2022/05/22 03:44:13;;;;;;;8.13;7.47;;;;;;;;;;5052392;28;20449;-78
2022/05/22 03:46:40;;;;;;;8.43;7.63;;;;;;;;;;5052864;28;20480;-78
2022/05/22 03:49:07;;;;;;;7.50;6.80;;;;;;;;;;5054317;28;20469;-79
2022/05/22 03:51:35;;;;;;;7.93;7.17;;;;;;;;;;5055178;28;20452;-78
2022/05/22 03:54:02;;;;;;;7.00;6.50;;;;;;;;;;5053350;28;20528;-79
2022/05/22 03:56:30;;;;;;;8.10;7.40;;;;;;;;;;5051737;28;20714;-79
2022/05/22 03:58:57;;;;;;;6.97;6.47;;;;;;;;;;5052226;28;20461;-79
2022/05/22 04:01:24;;;;;;;7.40;6.47;;;;;;;;;;5046030;28;20446;-78
2022/05/22 04:03:52;;;;;;;7.60;6.90;;;;;;;;;;5052083;28;20503;-78
2022/05/22 04:06:19;;;;;;;7.53;6.83;;;;;;;;;;5053688;28;20437;-79
2022/05/22 04:08:46;;;;;;;6.70;6.20;;;;;;;;;;5054030;28;20480;-78
2022/05/22 04:11:14;;;;;;;7.03;6.43;;;;;;;;;;5048149;28;20836;-78
2022/05/22 04:13:43;;;;;;;6.60;6.10;;;;;;;;;;5055958;28;20507;-79
2022/05/22 04:16:10;;;;;;;6.63;6.03;;;;;;;;;;5034637;28;20630;-78
2022/05/22 04:18:37;;;;;;;6.00;5.50;;;;;;;;;;5032280;28;20482;-79
2022/05/22 04:21:05;;;;;;;5.73;5.33;;;;;;;;;;5033489;28;20444;-79
2022/05/22 04:26:17;;;;;;;6.00;5.50;;;;;;;;;;5033945;28;21064;-79
2022/05/22 04:28:45;;;;;;;6.90;6.40;;;;;;;;;;5032882;28;20462;-79
2022/05/22 04:31:12;;;;;;;6.60;6.00;;;;;;;;;;5031993;28;20442;-79
2022/05/22 04:33:39;;;;;;;5.97;5.57;;;;;;;;;;5031554;28;20931;-80
2022/05/22 04:36:06;;;;;;;6.20;5.70;;;;;;;;;;5031662;28;20478;-78
2022/05/22 04:38:33;;;;;;;6.80;6.30;;;;;;;;;;5031823;28;20477;-79
2022/05/22 04:41:01;;;;;;;6.57;5.93;;;;;;;;;;5031731;28;20934;-78
2022/05/22 04:43:29;;;;;;;5.60;5.20;;;;;;;;;;5031181;28;20431;-80
2022/05/22 04:45:58;;;;;;;5.97;5.57;;;;;;;;;;5031493;28;20496;-78
2022/05/22 04:48:26;;;;;;;6.60;6.10;;;;;;;;;;5031433;28;20458;-78
2022/05/22 04:50:54;;;;;;;5.90;5.50;;;;;;;;;;5031750;28;20446;-78
2022/05/22 04:53:22;;;;;;;6.27;5.77;;;;;;;;;;5031838;28;20447;-79
2022/05/22 04:55:49;;;;;;;5.73;5.27;;;;;;;;;;5031631;28;20438;-78
2022/05/22 04:58:17;;;;;;;6.30;5.80;;;;;;;;;;5032079;28;20458;-78
2022/05/22 05:00:44;;;;;;;5.83;5.43;;;;;;;;;;5031501;28;21015;-78
2022/05/22 05:03:19;;;;;;;6.10;5.60;;;;;;;;;;5032031;28;20556;-79
2022/05/22 05:05:53;;;;;;;5.87;5.37;;;;;;;;;;5031853;28;20465;-79
2022/05/22 05:08:20;;;;;;;6.07;5.47;;;;;;;;;;5048750;28;20584;-79
2022/05/22 05:10:47;;;;;;;6.47;5.90;;;;;;;;;;5055983;28;20487;-79
2022/05/22 05:13:14;;;;;;;6.00;5.50;;;;;;;;;;5055800;28;20453;-79
2022/05/22 05:15:41;;;;;;;5.00;4.70;;;;;;;;;;5055735;28;20442;-79
2022/05/22 05:18:08;;;;;;;7.20;5.60;;;;;;;;;;5055725;28;20489;-79
2022/05/22 05:20:38;;;;;;;6.07;5.50;;;;;;;;;;5055990;28;20510;-79
2022/05/22 05:23:06;;;;;;;6.23;5.40;;;;;;;;;;5055948;28;20488;-79
2022/05/22 05:25:33;;;;;;;5.70;5.27;;;;;;;;;;5071598;28;20476;-78
2022/05/22 05:28:00;;;;;;;6.30;5.07;;;;;;;;;;5061986;28;20926;-79
2022/05/22 05:30:27;;;;;;;5.87;5.40;;;;;;;;;;5056008;28;20933;-79
2022/05/22 05:32:57;;;;;;;6.00;5.50;;;;;;;;;;5054561;28;20483;-79
2022/05/22 05:35:24;;;;;;;5.10;4.70;;;;;;;;;;5044815;28;20512;-78
2022/05/22 05:37:53;;;;;;;6.10;5.50;;;;;;;;;;5052600;28;20489;-79
2022/05/22 05:40:20;;;;;;;5.53;5.03;;;;;;;;;;5055136;28;20791;-79
2022/05/22 05:42:48;;;;;;;5.30;4.80;;;;;;;;;;5054923;28;20499;-78
2022/05/22 05:45:17;;;;;;;4.97;4.47;;;;;;;;;;5054486;28;20453;-79
2022/05/22 05:47:45;;;;;;;6.00;5.37;;;;;;;;;;5054720;28;20453;-78
2022/05/22 05:50:13;;;;;;;5.70;5.20;;;;;;;;;;5054160;28;20465;-78
2022/05/22 05:52:40;;;;;;;5.40;5.00;;;;;;;;;;5055003;28;20449;-78
2022/05/22 05:55:09;;;;;;;4.93;4.53;;;;;;;;;;5054983;28;20932;-79
2022/05/22 05:57:36;;;;;;;5.10;4.70;;;;;;;;;;5057787;28;20481;-78
2022/05/22 06:00:04;;;;;;;5.83;4.73;;;;;;;;;;5059832;28;20504;-78
2022/05/22 06:02:32;;;;;;;5.10;4.70;;;;;;;;;;5054816;28;20560;-78
2022/05/22 06:04:59;;;;;;;5.37;4.80;;;;;;;;;;5054399;28;20533;-78
2022/05/22 06:07:26;;;;;;;4.40;4.10;;;;;;;;;;5054143;28;20522;-77
2022/05/22 06:09:53;;;;;;;5.20;4.80;;;;;;;;;;5053700;28;20457;-79
2022/05/22 06:12:21;;;;;;;4.37;3.97;;;;;;;;;;5053600;28;20531;-78
2022/05/22 06:14:48;;;;;;;4.47;4.07;;;;;;;;;;5054364;28;20480;-78
2022/05/22 06:17:15;;;;;;;4.47;4.17;;;;;;;;;;5054008;28;20488;-78
2022/05/22 06:19:55;;;;;;;6.07;5.50;;;;;;;;;;5052931;28;20465;-78
2022/05/22 06:22:23;;;;;;;4.43;4.13;;;;;;;;;;5054105;28;20446;-79
2022/05/22 06:24:50;;;;;;;5.07;4.40;;;;;;;;;;5053613;28;20432;-78
2022/05/22 06:27:17;;;;;;;4.50;4.10;;;;;;;;;;5052907;28;20523;-78
2022/05/22 06:29:46;;;;;;;5.30;3.97;;;;;;;;;;5052284;28;20476;-78
2022/05/22 06:32:14;;;;;;;4.37;4.07;;;;;;;;;;5053073;28;20450;-79
2022/05/22 06:34:41;;;;;;;4.30;3.90;;;;;;;;;;5053665;28;20446;-79
2022/05/22 06:37:09;;;;;;;3.70;3.40;;;;;;;;;;5053114;28;20969;-78
2022/05/22 06:39:51;;;;;;;4.50;3.73;;;;;;;;;;5053687;28;20519;-78
2022/05/22 06:42:19;;;;;;;4.23;4.03;;;;;;;;;;5053282;28;20438;-79
2022/05/22 06:44:51;;;;;;;4.80;4.40;;;;;;;;;;5053348;28;20448;-79
2022/05/22 06:47:18;;;;;;;5.00;4.60;;;;;;;;;;5053697;28;20544;-78
2022/05/22 06:49:45;;;;;;;4.60;4.20;;;;;;;;;;5053585;28;20530;-78
2022/05/22 06:52:12;;;;;;;5.03;4.27;;;;;;;;;;5053449;28;20454;-79
2022/05/22 06:54:39;;;;;;;4.43;4.03;;;;;;;;;;5053372;28;20449;-78
2022/05/22 06:57:06;;;;;;;5.43;4.20;;;;;;;;;;5053976;28;20481;-78
2022/05/22 06:59:33;;;;;;;4.70;4.30;;;;;;;;;;5055201;28;20857;-79
2022/05/22 07:02:04;;;;;;;4.73;4.33;;;;;;;;;;5053372;28;20446;-78
2022/05/22 07:04:31;;;;;;;4.63;4.00;;;;;;;;;;5054921;28;20449;-78
2022/05/22 07:06:59;;;;;;;7.77;4.20;;;;;;;;;;5054286;28;20438;-79
2022/05/22 07:09:26;;;;;;;3.80;3.50;;;;;;;;;;5059964;28;20461;-77
2022/05/22 07:11:55;;;;;;;4.00;3.70;;;;;;;;;;5061997;28;20450;-77
2022/05/22 07:14:22;;;;;;;3.70;3.40;;;;;;;;;;5063187;28;20508;-79
2022/05/22 07:16:50;;;;;;;3.63;3.43;;;;;;;;;;5061184;28;20445;-78
2022/05/22 07:19:19;;;;;;;3.93;3.60;;;;;;;;;;5059699;28;20461;-78
2022/05/22 07:21:46;;;;;;;4.17;3.77;;;;;;;;;;5058191;28;20770;-79
2022/05/22 07:24:13;;;;;;;3.53;3.23;;;;;;;;;;5052895;28;20441;-79
2022/05/22 07:26:41;;;;;;;4.90;4.50;;;;;;;;;;5052885;28;20433;-78
2022/05/22 07:29:08;;;;;;;4.07;3.77;;;;;;;;;;5052396;28;20512;-79
2022/05/22 07:31:35;;;;;;;3.73;3.37;;;;;;;;;;5053694;28;20496;-79
2022/05/22 07:34:02;;;;;;;3.73;3.43;;;;;;;;;;5052907;28;20442;-77
2022/05/22 07:36:30;;;;;;;3.50;3.30;;;;;;;;;;5055806;28;20464;-79
2022/05/22 07:38:57;;;;;;;5.17;4.70;;;;;;;;;;5058604;28;20493;-78
2022/05/22 07:41:24;;;;;;;3.57;3.27;;;;;;;;;;5054696;28;20442;-78
2022/05/22 07:43:51;;;;;;;3.57;3.27;;;;;;;;;;5057728;28;20503;-78
2022/05/22 07:46:18;;;;;;;3.60;3.40;;;;;;;;;;5053655;28;20441;-78
2022/05/22 07:48:45;;;;;;;4.23;3.73;;;;;;;;;;5052772;28;20461;-79
2022/05/22 07:51:13;;;;;;;5.23;3.30;;;;;;;;;;5052731;28;20956;-79
2022/05/22 07:53:41;;;;;;;3.40;3.10;;;;;;;;;;5051897;28;20853;-79
2022/05/22 07:56:09;;;;;;;3.33;3.03;;;;;;;;;;5052594;28;20442;-79
2022/05/22 07:58:36;;;;;;;3.90;3.40;;;;;;;;;;5052368;28;20571;-79
2022/05/22 08:01:03;;;;;;;4.60;3.20;;;;;;;;;;5052097;28;20495;-78
2022/05/22 08:03:32;;;;;;;5.13;3.50;;;;;;;;;;5051881;28;20445;-79
2022/05/22 08:06:00;;;;;;;3.63;3.33;;;;;;;;;;5052107;28;20438;-79
2022/05/22 08:08:28;;;;;;;3.50;3.20;;;;;;;;;;5052002;28;20477;-79
2022/05/22 08:10:58;;;;;;;3.73;2.97;;;;;;;;;;5051697;28;20537;-78
2022/05/22 08:13:25;;;;;;;4.20;2.60;;;;;;;;;;5051768;28;20939;-80
2022/05/22 08:15:52;;;;;;;8.93;2.97;;;;;;;;;;5052472;28;20453;-79
2022/05/22 08:18:20;;;;;;;3.23;3.00;;;;;;;;;;5051950;28;20535;-78
2022/05/22 08:20:49;;;;;;;2.77;2.50;;;;;;;;;;5051833;28;20456;-78
2022/05/22 08:23:18;;;;;;;3.07;2.60;;;;;;;;;;5051720;28;20924;-79
2022/05/22 08:25:45;;;;;;;2.77;2.57;;;;;;;;;;5051451;28;20458;-78
2022/05/22 08:28:13;;;;;;;3.30;2.57;;;;;;;;;;5051881;28;20596;-79
2022/05/22 08:30:41;;;;;;;4.57;4.17;;;;;;;;;;5051777;28;20970;-80
2022/05/22 08:33:08;;;;;;;3.30;3.10;;;;;;;;;;5051532;28;20446;-79
2022/05/22 08:35:37;;;;;;;2.70;2.50;;;;;;;;;;5047209;28;20453;-78
2022/05/22 08:38:04;;;;;;;3.70;2.70;;;;;;;;;;5050866;28;20485;-79
2022/05/22 08:40:37;;;;;;;3.23;2.80;;;;;;;;;;5051230;28;20448;-79
2022/05/22 08:43:06;;;;;;;2.40;2.20;;;;;;;;;;5050841;28;20446;-78
2022/05/22 08:45:39;;;;;;;2.90;2.60;;;;;;;;;;5051107;28;20453;-78
2022/05/22 08:48:09;;;;;;;2.60;2.40;;;;;;;;;;5051040;28;20454;-79
2022/05/22 08:50:37;;;;;;;2.90;2.70;;;;;;;;;;5051057;28;20445;-78
2022/05/22 08:53:05;;;;;;;3.63;2.00;;;;;;;;;;5050939;28;20446;-78
2022/05/22 09:01:09;;;;;;;2.37;2.00;;;;;;;;;;5051341;28;20533;-79
2022/05/22 09:03:39;;;;;;;4.20;2.00;;;;;;;;;;5051275;28;20468;-79
2022/05/22 09:06:07;;;;;;;2.87;2.00;;;;;;;;;;5051351;28;20961;-78
2022/05/22 09:08:38;;;;;;;2.27;1.90;;;;;;;;;;5059099;28;20515;-77
2022/05/22 09:11:08;;;;;;;2.07;1.97;;;;;;;;;;5055689;28;20851;-79
2022/05/22 09:13:38;;;;;;;2.03;1.93;;;;;;;;;;5052064;28;20450;-78
2022/05/22 09:16:13;;;;;;;3.20;2.90;;;;;;;;;;5051355;28;20867;-78
2022/05/22 09:18:45;;;;;;;3.40;2.27;;;;;;;;;;5049141;28;20904;-77
2022/05/22 09:21:21;;;;;;;2.10;2.00;;;;;;;;;;5049933;28;20470;-78
2022/05/22 09:23:57;;;;;;;2.33;2.10;;;;;;;;;;5062204;28;20441;-78
2022/05/22 09:26:42;;;;;;;2.60;2.40;;;;;;;;;;5061860;28;20448;-77
2022/05/22 09:29:15;;;;;;;3.00;2.13;;;;;;;;;;5063101;28;20465;-79
2022/05/22 09:31:47;;;;;;;2.60;2.40;;;;;;;;;;5061797;28;20452;-77
2022/05/22 09:34:17;;;;;;;2.57;2.40;;;;;;;;;;5061320;28;20936;-77
2022/05/22 09:36:51;;;;;;;2.73;2.30;;;;;;;;;;5061450;28;20464;-78
2022/05/22 09:39:26;;;;;;;2.80;2.20;;;;;;;;;;5053067;28;20492;-79
2022/05/22 09:41:59;;;;;;;2.77;2.50;;;;;;;;;;5051211;28;20932;-79
2022/05/22 09:44:41;;;;;;;2.37;2.20;;;;;;;;;;5051177;28;20445;-78
2022/05/22 09:47:21;;;;;;;2.77;1.80;;;;;;;;;;5048626;28;20438;-78
2022/05/22 09:49:56;;;;;;;2.30;2.20;;;;;;;;;;5049117;28;20449;-77
2022/05/22 09:52:25;;;;;;;2.27;2.10;;;;;;;;;;5049231;28;20444;-78
2022/05/22 09:55:01;;;;;;;2.27;2.00;;;;;;;;;;5048308;28;20492;-78
2022/05/22 09:57:34;;;;;;;2.43;1.87;;;;;;;;;;5053928;28;20437;-78
2022/05/22 10:00:05;;;;;;;2.30;2.10;;;;;;;;;;5049974;28;20471;-78
2022/05/22 10:02:39;;;;;;;2.30;2.10;;;;;;;;;;5051617;28;20480;-78
2022/05/22 10:05:09;;;;;;;3.20;2.20;;;;;;;;;;5055939;28;20920;-79
2022/05/22 10:07:39;;;;;;;3.10;2.00;;;;;;;;;;5053531;28;20465;-78
2022/05/22 10:10:10;;;;;;;1.70;1.60;;;;;;;;;;5053456;28;20816;-78
2022/05/22 10:12:45;;;;;;;1.83;1.73;;;;;;;;;;5049960;28;20499;-78
2022/05/22 10:15:17;;;;;;;2.90;2.30;;;;;;;;;;5054500;28;20542;-77
2022/05/22 10:17:52;;;;;;;1.90;1.80;;;;;;;;;;5053553;28;21068;-78
2022/05/22 10:20:24;;;;;;;3.90;2.50;;;;;;;;;;5054620;28;20499;-78
2022/05/22 10:22:55;;;;;;;1.87;1.77;;;;;;;;;;5054845;28;20464;-78
2022/05/22 10:25:28;;;;;;;2.83;2.30;;;;;;;;;;5054302;28;20454;-78
2022/05/22 10:27:57;;;;;;;2.40;2.30;;;;;;;;;;5054432;28;20515;-78
2022/05/22 10:30:27;;;;;;;2.43;2.00;;;;;;;;;;5051628;28;20449;-79
2022/05/22 10:33:00;;;;;;;1.97;1.83;;;;;;;;;;5051693;28;20450;-78
2022/05/22 10:35:30;;;;;;;2.67;2.10;;;;;;;;;;5053366;28;20758;-78
2022/05/22 10:37:59;;;;;;;2.10;1.93;;;;;;;;;;5053737;28;20485;-78
2022/05/22 10:42:44;;;;;;;1.97;1.80;;;;;;;;;;5050112;28;20533;-78
2022/05/22 10:43:13;;;;;;;2.97;2.00;;;;;;;;;;5050290;28;20480;-78
2022/05/22 10:45:40;;;;;;;2.93;2.10;;;;;;;;;;5053004;28;20425;-78
2022/05/22 10:48:10;;;;;;;1.67;1.57;;;;;;;;;;5052688;28;20465;-78
2022/05/22 10:50:37;;;;;;;2.30;2.00;;;;;;;;;;5052499;28;20513;-78
2022/05/22 10:53:05;;;;;;;2.40;1.97;;;;;;;;;;5049010;28;20492;-78
2022/05/22 10:55:34;;;;;;;1.90;1.80;;;;;;;;;;5048091;28;20947;-77
2022/05/22 10:58:02;;;;;;;4.03;1.70;;;;;;;;;;5051226;28;20482;-78
2022/05/22 11:00:29;;;;;;;3.27;1.97;;;;;;;;;;5053052;28;20452;-78
2022/05/22 11:02:57;;;;;;;3.77;2.20;;;;;;;;;;5052309;28;20445;-78
2022/05/22 11:05:27;;;;;;;3.30;2.10;;;;;;;;;;5045064;28;20484;-77
2022/05/22 11:07:56;;;;;;;4.17;2.37;;;;;;;;;;5047555;28;20532;-78
2022/05/22 11:10:25;;;;;;;2.00;1.90;;;;;;;;;;5051108;28;20846;-77
2022/05/22 11:13:03;;;;;;;2.33;2.13;;;;;;;;;;5040115;28;20942;-78
2022/05/22 11:15:32;;;;;;;2.03;1.93;;;;;;;;;;5047092;28;20472;-77
2022/05/22 11:18:02;;;;;;;1.90;1.70;;;;;;;;;;5052684;28;20476;-78
2022/05/22 11:20:31;;;;;;;2.83;1.70;;;;;;;;;;5051500;28;20523;-78
2022/05/22 11:23:01;;;;;;;2.93;2.37;;;;;;;;;;5045201;28;20459;-79
2022/05/22 11:25:33;;;;;;;3.37;2.10;;;;;;;;;;5042163;28;20505;-78
2022/05/22 11:28:05;;;;;;;1.90;1.63;;;;;;;;;;5052100;28;20484;-78
2022/05/22 11:30:37;;;;;;;2.20;2.00;;;;;;;;;;5053013;28;20529;-78
2022/05/22 11:33:12;;;;;;;2.40;2.20;;;;;;;;;;5052210;28;20433;-78
2022/05/22 11:35:44;;;;;;;1.93;1.83;;;;;;;;;;5055181;28;20452;-78
2022/05/22 11:38:16;;;;;;;2.10;1.70;;;;;;;;;;5058470;28;20782;-78
2022/05/22 11:40:47;;;;;;;2.07;1.87;;;;;;;;;;5056116;28;20484;-77
2022/05/22 11:43:21;;;;;;;2.20;2.00;;;;;;;;;;5051215;28;20454;-78
2022/05/22 11:45:52;;;;;;;2.10;1.90;;;;;;;;;;5053755;28;20450;-77
2022/05/22 11:48:26;;;;;;;2.13;1.93;;;;;;;;;;5057926;28;20473;-78
2022/05/22 11:50:58;;;;;;;1.80;1.70;;;;;;;;;;5055582;28;20480;-78
2022/05/22 11:53:49;;;;;;;3.20;1.90;;;;;;;;;;5039613;28;20449;-77
2022/05/22 11:56:23;;;;;;;2.20;2.07;;;;;;;;;;5033191;28;20462;-79
2022/05/22 11:58:54;;;;;;;1.70;1.60;;;;;;;;;;5051497;28;20477;-78
2022/05/22 12:01:24;;;;;;;1.97;1.87;;;;;;;;;;5051877;28;20442;-78
2022/05/22 12:04:03;;;;;;;2.20;1.73;;;;;;;;;;5051056;28;20528;-78
2022/05/22 12:06:45;;;;;;;2.40;1.90;;;;;;;;;;5051366;28;20873;-78
2022/05/22 12:09:17;;;;;;;1.80;1.70;;;;;;;;;;5051217;28;20473;-77
2022/05/22 12:12:04;;;;;;;1.70;1.60;;;;;;;;;;5051776;28;20445;-77
2022/05/22 12:14:34;;;;;;;2.23;1.60;;;;;;;;;;5050969;28;20445;-77
2022/05/22 12:17:05;;;;;;;1.97;1.87;;;;;;;;;;5050817;28;20925;-78
2022/05/22 12:19:36;;;;;;;2.70;1.70;;;;;;;;;;5054529;28;20496;-78
2022/05/22 12:22:13;;;;;;;1.60;1.50;;;;;;;;;;5052305;28;20449;-79
2022/05/22 12:24:44;;;;;;;3.70;2.00;;;;;;;;;;5050751;28;20495;-78
2022/05/22 12:27:15;;;;;;;1.83;1.70;;;;;;;;;;5050912;28;20449;-78
2022/05/22 12:29:46;;;;;;;5.93;2.50;;;;;;;;;;5051273;28;20453;-79
2022/05/22 12:32:19;;;;;;;1.90;1.80;;;;;;;;;;5051410;28;20491;-78
2022/05/22 12:34:51;;;;;;;1.80;1.70;;;;;;;;;;5050305;28;20450;-78
2022/05/22 12:37:26;;;;;;;2.27;1.73;;;;;;;;;;5050860;28;20469;-78
2022/05/22 12:39:57;;;;;;;1.80;1.70;;;;;;;;;;5050639;28;20998;-78
2022/05/22 12:42:29;;;;;;;2.07;1.70;;;;;;;;;;5050816;28;20434;-78
2022/05/22 12:44:56;;;;;;;2.20;1.70;;;;;;;;;;5050805;28;20487;-77
2022/05/22 12:47:34;;;;;;;1.77;1.67;;;;;;;;;;5050587;28;20438;-78
2022/05/22 12:50:01;;;;;;;1.73;1.63;;;;;;;;;;5050989;28;20438;-78
2022/05/22 12:52:31;;;;;;;2.20;1.97;;;;;;;;;;5050784;28;20457;-79
2022/05/22 12:54:59;;;;;;;1.70;1.60;;;;;;;;;;5051747;28;20446;-78
2022/05/22 12:57:26;;;;;;;1.43;1.33;;;;;;;;;;5051287;28;20437;-78
2022/05/22 12:59:55;;;;;;;3.13;1.90;;;;;;;;;;5050911;28;20477;-78
2022/05/22 13:02:33;;;;;;;2.30;1.90;;;;;;;;;;5050994;28;20500;-78
2022/05/22 13:05:01;;;;;;;2.00;1.87;;;;;;;;;;5044524;28;20531;-79
2022/05/22 13:07:33;;;;;;;2.13;1.63;;;;;;;;;;5050780;28;20450;-79
2022/05/22 13:10:01;;;;;;;2.03;1.80;;;;;;;;;;5051038;28;20464;-79
2022/05/22 13:12:30;;;;;;;3.53;2.83;;;;;;;;;;5051042;28;20449;-79
2022/05/22 13:14:59;;;;;;;3.07;2.00;;;;;;;;;;5052273;28;20580;-78
2022/05/22 13:17:33;;;;;;;1.70;1.60;;;;;;;;;;5037092;28;20441;-79
2022/05/22 13:20:02;;;;;;;2.80;1.70;;;;;;;;;;5051922;28;20480;-79
2022/05/22 13:22:31;;;;;;;1.97;1.50;;;;;;;;;;5050708;28;20959;-78
2022/05/22 13:24:59;;;;;;;4.00;1.87;;;;;;;;;;5051500;28;20454;-80
2022/05/22 13:27:36;;;;;;;2.30;1.73;;;;;;;;;;5051103;28;20430;-78
2022/05/22 13:30:05;;;;;;;1.60;1.50;;;;;;;;;;5054680;28;20437;-79
2022/05/22 13:32:34;;;;;;;1.70;1.60;;;;;;;;;;5057271;28;20454;-78
2022/05/22 13:35:02;;;;;;;1.60;1.50;;;;;;;;;;5056271;28;20822;-78
2022/05/22 13:37:30;;;;;;;2.33;1.80;;;;;;;;;;5057079;28;20437;-79
2022/05/22 13:40:04;;;;;;;1.67;1.53;;;;;;;;;;5056835;28;20476;-78
2022/05/22 13:42:44;;;;;;;3.27;1.67;;;;;;;;;;5050303;28;20977;-79
2022/05/22 13:45:39;;;;;;;2.07;1.70;;;;;;;;;;5048132;28;20476;-78
2022/05/22 13:48:19;;;;;;;1.70;1.60;;;;;;;;;;5049602;28;20548;-78
2022/05/22 13:53:53;;;;;;;2.30;1.30;;;;;;;;;;5001261;28;20445;-78
2022/05/22 13:56:23;;;;;;;1.33;1.23;;;;;;;;;;5044142;28;20460;-78
2022/05/22 13:58:51;;;;;;;1.67;1.57;;;;;;;;;;5050583;28;20457;-78
2022/05/22 14:01:19;;;;;;;2.00;1.47;;;;;;;;;;5052381;28;20516;-79
2022/05/22 14:03:48;;;;;;;1.60;1.50;;;;;;;;;;5039861;28;20450;-78
2022/05/22 14:06:18;;;;;;;1.40;1.30;;;;;;;;;;5054035;28;20917;-78
2022/05/22 14:08:48;;;;;;;1.77;1.50;;;;;;;;;;5053845;28;20494;-79
2022/05/22 14:11:16;;;;;;;1.43;1.33;;;;;;;;;;5045918;28;20999;-78
2022/05/22 14:13:52;;;;;;;1.40;1.13;;;;;;;;;;5054127;28;20445;-78
2022/05/22 14:16:22;;;;;;;1.23;1.23;;;;;;;;;;5053962;28;20995;-78
2022/05/22 14:18:57;;;;;;;1.60;1.37;;;;;;;;;;5053520;28;20481;-77
2022/05/22 14:21:25;;;;;;;1.90;1.63;;;;;;;;;;5054315;28;21185;-79
2022/05/22 14:26:37;;;;;;;1.50;1.40;;;;;;;;;;5047494;28;20445;-79
2022/05/22 14:29:07;;;;;;;1.93;1.80;;;;;;;;;;5053954;28;20465;-78
2022/05/22 14:31:41;;;;;;;3.23;1.80;;;;;;;;;;5053798;28;20845;-79
2022/05/22 14:34:09;;;;;;;2.00;1.50;;;;;;;;;;5053621;28;20491;-77
2022/05/22 14:36:36;;;;;;;1.40;1.30;;;;;;;;;;5053706;28;20446;-76
2022/05/22 14:39:03;;;;;;;1.70;1.40;;;;;;;;;;5054001;28;20462;-77
2022/05/22 14:41:31;;;;;;;1.80;1.70;;;;;;;;;;5055142;28;20437;-80
2022/05/22 14:44:01;;;;;;;1.70;1.30;;;;;;;;;;5059557;28;20462;-78
2022/05/22 14:46:31;;;;;;;1.50;1.40;;;;;;;;;;5059298;28;20426;-80
2022/05/22 14:48:59;;;;;;;1.73;1.63;;;;;;;;;;5059230;28;20461;-80
2022/05/22 14:51:30;;;;;;;1.57;1.47;;;;;;;;;;5058408;28;20449;-80
2022/05/22 14:54:01;;;;;;;1.77;1.60;;;;;;;;;;5058271;28;20529;-79
2022/05/22 14:56:28;;;;;;;1.63;1.53;;;;;;;;;;5058218;28;20504;-79
2022/05/22 14:58:59;;;;;;;3.50;1.80;;;;;;;;;;5059216;28;20457;-81
2022/05/22 15:01:28;;;;;;;1.27;1.20;;;;;;;;;;5058810;28;20433;-80
2022/05/22 15:04:00;;;;;;;2.10;1.83;;;;;;;;;;5057189;28;20502;-79
2022/05/22 15:06:29;;;;;;;1.50;1.40;;;;;;;;;;5056875;28;20458;-78
2022/05/22 15:08:58;;;;;;;5.37;1.00;;;;;;;;;;5037392;28;20467;-79
2022/05/22 15:11:27;;;;;;;1.60;1.37;;;;;;;;;;5037863;28;20538;-80
2022/05/22 15:13:59;;;;;;;3.60;1.80;;;;;;;;;;5040333;28;20447;-80